地図

経路データ

SID SEASON NUMBER BASIN SUBBASIN NAME ISO_TIME NATURE LAT LON WMO_WIND WMO_PRES WMO_AGENCY TRACK_TYPE DIST2LAND LANDFALL IFLAG USA_AGENCY USA_ATCF_ID USA_LAT USA_LON USA_RECORD USA_STATUS USA_WIND USA_PRES USA_SSHS USA_R34_NE USA_R34_SE USA_R34_SW USA_R34_NW USA_R50_NE USA_R50_SE USA_R50_SW USA_R50_NW USA_R64_NE USA_R64_SE USA_R64_SW USA_R64_NW USA_POCI USA_ROCI USA_RMW USA_EYE TOKYO_LAT TOKYO_LON TOKYO_GRADE TOKYO_WIND TOKYO_PRES TOKYO_R50_DIR TOKYO_R50_LONG TOKYO_R50_SHORT TOKYO_R30_DIR TOKYO_R30_LONG TOKYO_R30_SHORT TOKYO_LAND CMA_LAT CMA_LON CMA_CAT CMA_WIND CMA_PRES HKO_LAT HKO_LON HKO_CAT HKO_WIND HKO_PRES NEWDELHI_LAT NEWDELHI_LON NEWDELHI_GRADE NEWDELHI_WIND NEWDELHI_PRES NEWDELHI_CI NEWDELHI_DP NEWDELHI_POCI REUNION_LAT REUNION_LON REUNION_TYPE REUNION_WIND REUNION_PRES REUNION_TNUM REUNION_CI REUNION_RMW REUNION_R34_NE REUNION_R34_SE REUNION_R34_SW REUNION_R34_NW REUNION_R50_NE REUNION_R50_SE REUNION_R50_SW REUNION_R50_NW REUNION_R64_NE REUNION_R64_SE REUNION_R64_SW REUNION_R64_NW BOM_LAT BOM_LON BOM_TYPE BOM_WIND BOM_PRES BOM_TNUM BOM_CI BOM_RMW BOM_R34_NE BOM_R34_SE BOM_R34_SW BOM_R34_NW BOM_R50_NE BOM_R50_SE BOM_R50_SW BOM_R50_NW BOM_R64_NE BOM_R64_SE BOM_R64_SW BOM_R64_NW BOM_ROCI BOM_POCI BOM_EYE BOM_POS_METHOD BOM_PRES_METHOD NADI_LAT NADI_LON NADI_CAT NADI_WIND NADI_PRES WELLINGTON_LAT WELLINGTON_LON WELLINGTON_WIND WELLINGTON_PRES DS824_LAT DS824_LON DS824_STAGE DS824_WIND DS824_PRES TD9636_LAT TD9636_LON TD9636_STAGE TD9636_WIND TD9636_PRES TD9635_LAT TD9635_LON TD9635_WIND TD9635_PRES TD9635_ROCI NEUMANN_LAT NEUMANN_LON NEUMANN_CLASS NEUMANN_WIND NEUMANN_PRES MLC_LAT MLC_LON MLC_CLASS MLC_WIND MLC_PRES USA_GUST BOM_GUST BOM_GUST_PER REUNION_GUST REUNION_GUST_PER USA_SEAHGT USA_SEARAD_NE USA_SEARAD_SE USA_SEARAD_SW USA_SEARAD_NW STORM_SPEED STORM_DIR
1871305S04460 1872 31 SI WA NOT_NAMED 1871-10-31 18:00:00 NR -4.00000 100.400 main 160 160 __________O___ -1 -4.00000 100.400 7 6 260
1871305S04460 1872 31 SI WA NOT_NAMED 1871-10-31 21:00:00 NR -4.05317 100.097 main 194 194 __________P___ -1 -4.05317 100.097 7 6 260
1871305S04460 1872 31 SI WA NOT_NAMED 1871-11-01 00:00:00 NR -4.10503 99.7850 main 223 223 __________P___ -1 -4.10503 99.7850 7 6 261
1871305S04460 1872 31 SI WA NOT_NAMED 1871-11-01 03:00:00 NR -4.15438 99.4557 main 258 258 __________P___ -1 -4.15438 99.4557 7 7 262
1871305S04460 1872 31 SI WA NOT_NAMED 1871-11-01 06:00:00 NR -4.20000 99.1000 main 268 268 __________O___ -1 -4.20000 99.1000 7 7 263
1871305S04460 1872 31 SI WA NOT_NAMED 1871-11-01 09:00:00 NR -4.24189 98.7134 main 272 272 __________P___ -1 -4.24189 98.7134 7 8 264
1871305S04460 1872 31 SI WA NOT_NAMED 1871-11-01 12:00:00 NR -4.28503 98.3074 main 293 293 __________P___ -1 -4.28503 98.3074 7 8 263
1871305S04460 1872 31 SI WA NOT_NAMED 1871-11-01 15:00:00 NR -4.33564 97.8978 main 310 310 __________P___ -1 -4.33564 97.8978 7 8 262
1871305S04460 1872 31 SI WA NOT_NAMED 1871-11-01 18:00:00 NR -4.40000 97.5000 main 340 340 __________O___ -1 -4.40000 97.5000 7 8 259
1871305S04460 1872 31 SI WA NOT_NAMED 1871-11-01 21:00:00 NR -4.48551 97.1437 main 372 372 __________P___ -1 -4.48551 97.1437 7 7 255
1871305S04460 1872 31 SI WA NOT_NAMED 1871-11-02 00:00:00 NR -4.58484 96.8000 main 400 400 __________P___ -1 -4.58484 96.8000 7 7 253
1871305S04460 1872 31 SI WA NOT_NAMED 1871-11-02 03:00:00 NR -4.69176 96.4562 main 429 429 __________P___ -1 -4.69176 96.4562 7 7 253
1871305S04460 1872 31 SI WA NOT_NAMED 1871-11-02 06:00:00 NR -4.80000 96.1000 main 466 466 __________O___ -1 -4.80000 96.1000 7 8 254
1871305S04460 1872 31 SI WA NOT_NAMED 1871-11-02 09:00:00 NR -4.90000 95.7062 main 504 504 __________P___ -1 -4.90000 95.7062 7 8 256
1871305S04460 1872 31 SI WA NOT_NAMED 1871-11-02 12:00:00 NR -5.00001 95.3000 main 544 544 __________P___ -1 -5.00001 95.3000 7 8 256
1871305S04460 1872 31 SI WA NOT_NAMED 1871-11-02 15:00:00 NR -5.10000 94.8937 main 585 585 __________P___ -1 -5.10000 94.8937 7 8 256
1871305S04460 1872 31 SI WA NOT_NAMED 1871-11-02 18:00:00 NR -5.20000 94.5000 main 626 626 __________O___ -1 -5.20000 94.5000 7 8 255
1871305S04460 1872 31 SI WA NOT_NAMED 1871-11-02 21:00:00 NR -5.29169 94.1558 main 659 659 __________P___ -1 -5.29169 94.1558 7 7 255
1871305S04460 1872 31 SI WA NOT_NAMED 1871-11-03 00:00:00 NR -5.38472 93.8223 main 702 702 __________P___ -1 -5.38472 93.8223 7 7 254
1871305S04460 1872 31 SI WA NOT_NAMED 1871-11-03 03:00:00 NR -5.48541 93.4777 main 735 735 __________P___ -1 -5.48541 93.4777 7 8 253
1871305S04460 1872 31 SI WA NOT_NAMED 1871-11-03 06:00:00 NR -5.60000 93.1000 main 778 778 __________O___ -1 -5.60000 93.1000 7 9 253
1871305S04460 1872 31 SI WA NOT_NAMED 1871-11-03 09:00:00 NR -5.72754 92.6568 main 821 821 __________P___ -1 -5.72754 92.6568 7 10 254
1871305S04460 1872 31 SI WA NOT_NAMED 1871-11-03 12:00:00 NR -5.87005 92.1799 main 880 880 __________P___ -1 -5.87005 92.1799 7 10 253
1871305S04460 1872 31 SI WA NOT_NAMED 1871-11-03 15:00:00 NR -6.02752 91.6880 main 933 933 __________P___ -1 -6.02752 91.6880 7 10 251
1871305S04460 1872 31 SI WA NOT_NAMED 1871-11-03 18:00:00 NR -6.20000 91.2000 main 992 992 __________O___ -1 -6.20000 91.2000 7 10 249
1871305S04460 1872 31 SI WA NOT_NAMED 1871-11-03 21:00:00 NR -6.38694 90.7305 main 1051 1051 __________P___ -1 -6.38694 90.7305 7 10 247
1871305S04460 1872 31 SI WA NOT_NAMED 1871-11-04 00:00:00 NR -6.58517 90.2779 main 1101 1101 __________P___ -1 -6.58517 90.2779 7 10 246
1871305S04460 1872 31 SI MM NOT_NAMED 1871-11-04 03:00:00 NR -6.79083 89.8363 main 1160 1160 __________P___ -1 -6.79083 89.8363 7 10 245
1871305S04460 1872 31 SI MM NOT_NAMED 1871-11-04 06:00:00 NR -7.00000 89.4000 main 1209 __________O___ -1 -7.00000 89.4000 7 10 244

IBTrACS Databaseについて

本データベースは、米国NOAAが公開する1842年以降の世界の熱帯低気圧のベストトラックデータアーカイブInternational Best Track Archive for Climate Stewardship (IBTrACS)を、ウェブで閲覧しやすい形式に変換したものです。

最終更新日:2021-10-08